DLH194 EDDF-EDDB
Flight info
| Callsign | DLH194 |
|---|---|
| Flight time | 0h 53m |
| Altitude | 31000 |
| Route | TOBAK3W/25C TOBAK N858 SWALM T201 TAMEB T278 KLF KLF1R |
| Aircraft | A320/M-SDE2E3FGIJ1LORWXYZ/HB1 |
Departure
| Time | 2026-05-05 08:40 |
|---|---|
| Airport | Frankfurt Main Airport (EDDF) |
Arrival
| Time | 2026-05-05 09:33 |
|---|---|
| Airport | Berlin Brandenburg Airport (EDDB) |
| Time | Latitude | Longitude | Altitude | Speed | Heading |
|---|---|---|---|---|---|
| 2026-05-05 08:11 | 50.04901 | 8.58796 | 366 ft | 0 kts | 160° |
| 2026-05-05 08:32 | 50.04902 | 8.58795 | 362 ft | 2 kts | 160° |
| 2026-05-05 08:32 | 50.04926 | 8.58781 | 365 ft | 4 kts | 160° |
| 2026-05-05 08:32 | 50.04950 | 8.58767 | 362 ft | 2 kts | 160° |
| 2026-05-05 08:33 | 50.04972 | 8.58759 | 364 ft | 4 kts | 188° |
| 2026-05-05 08:33 | 50.04994 | 8.58774 | 362 ft | 4 kts | 232° |
| 2026-05-05 08:33 | 50.05006 | 8.58808 | 365 ft | 4 kts | 250° |
| 2026-05-05 08:33 | 50.05009 | 8.58821 | 359 ft | 0 kts | 250° |
| 2026-05-05 08:36 | 50.05008 | 8.58818 | 359 ft | 2 kts | 250° |
| 2026-05-05 08:36 | 50.04993 | 8.58754 | 362 ft | 9 kts | 249° |
| 2026-05-05 08:36 | 50.04967 | 8.58676 | 362 ft | 7 kts | 223° |
| 2026-05-05 08:37 | 50.04925 | 8.58664 | 363 ft | 5 kts | 168° |
| 2026-05-05 08:37 | 50.04902 | 8.58675 | 363 ft | 2 kts | 161° |
| 2026-05-05 08:37 | 50.04873 | 8.58692 | 362 ft | 7 kts | 159° |
| 2026-05-05 08:37 | 50.04815 | 8.58726 | 367 ft | 11 kts | 159° |
| 2026-05-05 08:38 | 50.04727 | 8.58771 | 368 ft | 15 kts | 173° |
| 2026-05-05 08:38 | 50.04607 | 8.58742 | 371 ft | 19 kts | 206° |
| 2026-05-05 08:38 | 50.04509 | 8.58621 | 371 ft | 16 kts | 221° |
| 2026-05-05 08:38 | 50.04459 | 8.58477 | 370 ft | 7 kts | 249° |
| 2026-05-05 08:39 | 50.04458 | 8.58472 | 370 ft | 0 kts | 249° |
| 2026-05-05 08:39 | 50.04389 | 8.58188 | 369 ft | 69 kts | 249° |
| 2026-05-05 08:39 | 50.04142 | 8.57148 | 367 ft | 132 kts | 249° |
| 2026-05-05 08:40 | 50.03773 | 8.55586 | 598 ft | 163 kts | 250° |
| 2026-05-05 08:40 | 50.03378 | 8.53922 | 1324 ft | 164 kts | 250° |
| 2026-05-05 08:40 | 50.02964 | 8.52198 | 1912 ft | 180 kts | 249° |
| 2026-05-05 08:40 | 50.02432 | 8.50305 | 2346 ft | 202 kts | 236° |
| 2026-05-05 08:41 | 50.01410 | 8.48744 | 3050 ft | 209 kts | 210° |
| 2026-05-05 08:41 | 50.00074 | 8.47988 | 3940 ft | 208 kts | 188° |
| 2026-05-05 08:41 | 49.98631 | 8.47658 | 4642 ft | 212 kts | 188° |
| 2026-05-05 08:41 | 49.97175 | 8.47337 | 4839 ft | 211 kts | 188° |
| 2026-05-05 08:42 | 49.95720 | 8.46913 | 4895 ft | 216 kts | 197° |
| 2026-05-05 08:42 | 49.94211 | 8.46207 | 4896 ft | 237 kts | 196° |
| 2026-05-05 08:42 | 49.92633 | 8.45412 | 4897 ft | 240 kts | 205° |
| 2026-05-05 08:42 | 49.91338 | 8.43810 | 4882 ft | 242 kts | 232° |
| 2026-05-05 08:43 | 49.90674 | 8.41429 | 4880 ft | 244 kts | 260° |
| 2026-05-05 08:43 | 49.90811 | 8.38808 | 4881 ft | 248 kts | 288° |
| 2026-05-05 08:43 | 49.91741 | 8.36576 | 4880 ft | 251 kts | 317° |
| 2026-05-05 08:43 | 49.93265 | 8.35215 | 5095 ft | 262 kts | 337° |
| 2026-05-05 08:44 | 49.95003 | 8.34100 | 5771 ft | 277 kts | 336° |
| 2026-05-05 08:44 | 49.96800 | 8.32935 | 6651 ft | 283 kts | 336° |
| 2026-05-05 08:44 | 49.98633 | 8.31742 | 7559 ft | 287 kts | 336° |
| 2026-05-05 08:44 | 50.00487 | 8.30531 | 8517 ft | 290 kts | 336° |
| 2026-05-05 08:45 | 50.02365 | 8.29328 | 9488 ft | 294 kts | 340° |
| 2026-05-05 08:45 | 50.04378 | 8.28637 | 10380 ft | 301 kts | 353° |
| 2026-05-05 08:45 | 50.06553 | 8.28749 | 10742 ft | 326 kts | 10° |
| 2026-05-05 08:45 | 50.08772 | 8.29799 | 11319 ft | 339 kts | 19° |
| 2026-05-05 08:46 | 50.11019 | 8.31011 | 12087 ft | 345 kts | 18° |
| 2026-05-05 08:46 | 50.13312 | 8.32225 | 12881 ft | 350 kts | 18° |
| 2026-05-05 08:46 | 50.15637 | 8.33442 | 13652 ft | 356 kts | 18° |
| 2026-05-05 08:46 | 50.17999 | 8.34673 | 14331 ft | 361 kts | 18° |
| 2026-05-05 08:47 | 50.20397 | 8.35926 | 15000 ft | 365 kts | 18° |
| 2026-05-05 08:47 | 50.22823 | 8.37195 | 15679 ft | 370 kts | 18° |
| 2026-05-05 08:47 | 50.25279 | 8.38480 | 16347 ft | 375 kts | 18° |
| 2026-05-05 08:47 | 50.27740 | 8.39899 | 17007 ft | 380 kts | 24° |
| 2026-05-05 08:48 | 50.30049 | 8.41970 | 17669 ft | 385 kts | 36° |
| 2026-05-05 08:48 | 50.32119 | 8.44653 | 18305 ft | 389 kts | 42° |
| 2026-05-05 08:48 | 50.34151 | 8.47480 | 18892 ft | 392 kts | 41° |
| 2026-05-05 08:48 | 50.36197 | 8.50324 | 19523 ft | 394 kts | 41° |
| 2026-05-05 08:49 | 50.38255 | 8.53186 | 20128 ft | 397 kts | 41° |
| 2026-05-05 08:49 | 50.40332 | 8.56076 | 20721 ft | 400 kts | 41° |
| 2026-05-05 08:49 | 50.42394 | 8.58948 | 21282 ft | 404 kts | 41° |
| 2026-05-05 08:49 | 50.44526 | 8.61923 | 21849 ft | 407 kts | 41° |
| 2026-05-05 08:50 | 50.46640 | 8.64819 | 22398 ft | 410 kts | 40° |
| 2026-05-05 08:50 | 50.48824 | 8.67718 | 22950 ft | 413 kts | 39° |
| 2026-05-05 08:50 | 50.51046 | 8.70617 | 23490 ft | 417 kts | 39° |
| 2026-05-05 08:50 | 50.53292 | 8.73529 | 23932 ft | 420 kts | 39° |
| 2026-05-05 08:51 | 50.55526 | 8.76517 | 24374 ft | 423 kts | 44° |
| 2026-05-05 08:51 | 50.57487 | 8.79980 | 24793 ft | 426 kts | 54° |
| 2026-05-05 08:51 | 50.59068 | 8.83940 | 25203 ft | 429 kts | 62° |
| 2026-05-05 08:51 | 50.60494 | 8.88081 | 25614 ft | 432 kts | 62° |
| 2026-05-05 08:52 | 50.61939 | 8.92261 | 26024 ft | 436 kts | 62° |
| 2026-05-05 08:52 | 50.63396 | 8.96465 | 26426 ft | 439 kts | 62° |
| 2026-05-05 08:52 | 50.64869 | 9.00708 | 26830 ft | 442 kts | 62° |
| 2026-05-05 08:52 | 50.66347 | 9.04969 | 27211 ft | 446 kts | 62° |
| 2026-05-05 08:53 | 50.67837 | 9.09277 | 27600 ft | 449 kts | 62° |
| 2026-05-05 08:53 | 50.69335 | 9.13619 | 27992 ft | 452 kts | 62° |
| 2026-05-05 08:53 | 50.70820 | 9.18002 | 28352 ft | 455 kts | 65° |
| 2026-05-05 08:53 | 50.71999 | 9.22650 | 28721 ft | 457 kts | 75° |
| 2026-05-05 08:54 | 50.72789 | 9.27505 | 29078 ft | 458 kts | 79° |
| 2026-05-05 08:54 | 50.73525 | 9.32416 | 29451 ft | 461 kts | 79° |
| 2026-05-05 08:54 | 50.74267 | 9.37363 | 29821 ft | 464 kts | 79° |
| 2026-05-05 08:54 | 50.75015 | 9.42339 | 30121 ft | 468 kts | 79° |
| 2026-05-05 08:55 | 50.75767 | 9.47354 | 30418 ft | 471 kts | 79° |
| 2026-05-05 08:55 | 50.76523 | 9.52391 | 30727 ft | 473 kts | 79° |
| 2026-05-05 08:55 | 50.77282 | 9.57456 | 30849 ft | 474 kts | 79° |
| 2026-05-05 08:56 | 50.78785 | 9.67599 | 30877 ft | 473 kts | 79° |
| 2026-05-05 08:56 | 50.80280 | 9.77733 | 30869 ft | 474 kts | 79° |
| 2026-05-05 08:57 | 50.81774 | 9.87874 | 30886 ft | 474 kts | 79° |
| 2026-05-05 08:57 | 50.83252 | 9.98022 | 30877 ft | 474 kts | 79° |
| 2026-05-05 08:58 | 50.84379 | 10.08248 | 30883 ft | 470 kts | 90° |
| 2026-05-05 08:58 | 50.84031 | 10.18428 | 30883 ft | 466 kts | 99° |
| 2026-05-05 08:59 | 50.83435 | 10.28706 | 30883 ft | 466 kts | 99° |
| 2026-05-05 08:59 | 50.82842 | 10.38842 | 30879 ft | 466 kts | 99° |
| 2026-05-05 09:00 | 50.82238 | 10.49044 | 30894 ft | 466 kts | 99° |
| 2026-05-05 09:00 | 50.81626 | 10.59240 | 30903 ft | 466 kts | 99° |
| 2026-05-05 09:01 | 50.81392 | 10.69487 | 30908 ft | 471 kts | 86° |
| 2026-05-05 09:01 | 50.83057 | 10.79527 | 30913 ft | 476 kts | 67° |
| 2026-05-05 09:02 | 50.86152 | 10.88814 | 30913 ft | 478 kts | 62° |
| 2026-05-05 09:02 | 50.89286 | 10.98111 | 30921 ft | 478 kts | 62° |
| 2026-05-05 09:03 | 50.92395 | 11.07417 | 30920 ft | 478 kts | 62° |
| 2026-05-05 09:03 | 50.95496 | 11.16743 | 30916 ft | 478 kts | 63° |
| 2026-05-05 09:04 | 50.98592 | 11.26085 | 30895 ft | 478 kts | 62° |
| 2026-05-05 09:04 | 51.01694 | 11.35414 | 30896 ft | 478 kts | 62° |
| 2026-05-05 09:05 | 51.04806 | 11.44772 | 30890 ft | 479 kts | 62° |
| 2026-05-05 09:05 | 51.07896 | 11.54159 | 30895 ft | 479 kts | 62° |
| 2026-05-05 09:06 | 51.10968 | 11.63572 | 30890 ft | 479 kts | 62° |
| 2026-05-05 09:06 | 51.14033 | 11.72979 | 30890 ft | 479 kts | 62° |
| 2026-05-05 09:07 | 51.17076 | 11.82340 | 30886 ft | 479 kts | 62° |
| 2026-05-05 09:07 | 51.20165 | 11.91747 | 30911 ft | 479 kts | 58° |
| 2026-05-05 09:08 | 51.24246 | 12.00023 | 30823 ft | 465 kts | 44° |
| 2026-05-05 09:08 | 51.26445 | 12.03699 | 30707 ft | 450 kts | 44° |
| 2026-05-05 09:08 | 51.28576 | 12.07277 | 30476 ft | 440 kts | 44° |
| 2026-05-05 09:08 | 51.30660 | 12.10791 | 30247 ft | 433 kts | 44° |
| 2026-05-05 09:09 | 51.32720 | 12.14266 | 30030 ft | 430 kts | 44° |
| 2026-05-05 09:09 | 51.34772 | 12.17729 | 29790 ft | 428 kts | 44° |
| 2026-05-05 09:09 | 51.36814 | 12.21177 | 29569 ft | 426 kts | 44° |
| 2026-05-05 09:09 | 51.38847 | 12.24619 | 29313 ft | 424 kts | 45° |
| 2026-05-05 09:10 | 51.40864 | 12.28044 | 29085 ft | 423 kts | 44° |
| 2026-05-05 09:10 | 51.42877 | 12.31473 | 28834 ft | 422 kts | 44° |
| 2026-05-05 09:10 | 51.44882 | 12.34889 | 28585 ft | 420 kts | 44° |
| 2026-05-05 09:10 | 51.46882 | 12.38297 | 28336 ft | 418 kts | 44° |
| 2026-05-05 09:11 | 51.48868 | 12.41682 | 28099 ft | 416 kts | 44° |
| 2026-05-05 09:11 | 51.50847 | 12.45058 | 27842 ft | 415 kts | 44° |
| 2026-05-05 09:11 | 51.52819 | 12.48428 | 27592 ft | 413 kts | 45° |
| 2026-05-05 09:11 | 51.54783 | 12.51785 | 27364 ft | 411 kts | 45° |
| 2026-05-05 09:12 | 51.56733 | 12.55123 | 27115 ft | 409 kts | 45° |
| 2026-05-05 09:12 | 51.58677 | 12.58460 | 26878 ft | 408 kts | 45° |
| 2026-05-05 09:12 | 51.60610 | 12.61791 | 26658 ft | 406 kts | 45° |
| 2026-05-05 09:12 | 51.62533 | 12.65106 | 26411 ft | 404 kts | 45° |
| 2026-05-05 09:13 | 51.63828 | 12.67337 | 26254 ft | 403 kts | 45° |
| 2026-05-05 09:13 | 51.65739 | 12.70631 | 26020 ft | 402 kts | 45° |
| 2026-05-05 09:13 | 51.67640 | 12.73916 | 25797 ft | 400 kts | 45° |
| 2026-05-05 09:13 | 51.69531 | 12.77184 | 25573 ft | 399 kts | 45° |
| 2026-05-05 09:14 | 51.71424 | 12.80457 | 25344 ft | 397 kts | 45° |
| 2026-05-05 09:14 | 51.73303 | 12.83715 | 25131 ft | 396 kts | 45° |
| 2026-05-05 09:14 | 51.75174 | 12.86966 | 24930 ft | 395 kts | 46° |
| 2026-05-05 09:14 | 51.77012 | 12.90167 | 24870 ft | 393 kts | 47° |
| 2026-05-05 09:15 | 51.78646 | 12.93717 | 24890 ft | 395 kts | 58° |
| 2026-05-05 09:15 | 51.80069 | 12.97512 | 24884 ft | 395 kts | 58° |
| 2026-05-05 09:15 | 51.81489 | 13.01302 | 24660 ft | 393 kts | 59° |
| 2026-05-05 09:15 | 51.82901 | 13.05072 | 24224 ft | 391 kts | 59° |
| 2026-05-05 09:16 | 51.84314 | 13.08848 | 23506 ft | 397 kts | 59° |
| 2026-05-05 09:16 | 51.85758 | 13.12711 | 22586 ft | 405 kts | 59° |
| 2026-05-05 09:16 | 51.87228 | 13.16651 | 21707 ft | 413 kts | 59° |
| 2026-05-05 09:16 | 51.88723 | 13.20662 | 20808 ft | 419 kts | 59° |
| 2026-05-05 09:17 | 51.90237 | 13.24723 | 19956 ft | 424 kts | 59° |
| 2026-05-05 09:17 | 51.91769 | 13.28838 | 19110 ft | 428 kts | 59° |
| 2026-05-05 09:17 | 51.93310 | 13.32982 | 18302 ft | 431 kts | 59° |
| 2026-05-05 09:17 | 51.94861 | 13.37168 | 17409 ft | 434 kts | 59° |
| 2026-05-05 09:18 | 51.96415 | 13.41379 | 16523 ft | 436 kts | 59° |
| 2026-05-05 09:18 | 51.98059 | 13.45511 | 15653 ft | 434 kts | 50° |
| 2026-05-05 09:18 | 52.00307 | 13.48566 | 14825 ft | 415 kts | 27° |
| 2026-05-05 09:18 | 52.02983 | 13.49923 | 14014 ft | 396 kts | 2° |
| 2026-05-05 09:19 | 52.05631 | 13.49446 | 13150 ft | 376 kts | 337° |
| 2026-05-05 09:19 | 52.07790 | 13.47328 | 12268 ft | 356 kts | 312° |
| 2026-05-05 09:19 | 52.09211 | 13.44155 | 11394 ft | 341 kts | 297° |
| 2026-05-05 09:19 | 52.10295 | 13.40781 | 10568 ft | 332 kts | 294° |
| 2026-05-05 09:20 | 52.11317 | 13.37494 | 10086 ft | 317 kts | 294° |
| 2026-05-05 09:20 | 52.12276 | 13.34427 | 9931 ft | 292 kts | 294° |
| 2026-05-05 09:20 | 52.13266 | 13.31697 | 9885 ft | 267 kts | 301° |
| 2026-05-05 09:20 | 52.14319 | 13.29329 | 9891 ft | 253 kts | 304° |
| 2026-05-05 09:21 | 52.15393 | 13.27076 | 9896 ft | 251 kts | 304° |
| 2026-05-05 09:21 | 52.16468 | 13.24843 | 9888 ft | 250 kts | 304° |
| 2026-05-05 09:21 | 52.17519 | 13.22623 | 9628 ft | 248 kts | 301° |
| 2026-05-05 09:21 | 52.18229 | 13.20123 | 9298 ft | 241 kts | 281° |
| 2026-05-05 09:22 | 52.18360 | 13.17434 | 8971 ft | 237 kts | 262° |
| 2026-05-05 09:22 | 52.17945 | 13.14862 | 8645 ft | 235 kts | 247° |
| 2026-05-05 09:22 | 52.17343 | 13.12393 | 8308 ft | 234 kts | 248° |
| 2026-05-05 09:22 | 52.16754 | 13.09958 | 7979 ft | 233 kts | 248° |
| 2026-05-05 09:23 | 52.16160 | 13.07507 | 7634 ft | 232 kts | 248° |
| 2026-05-05 09:23 | 52.15568 | 13.05065 | 7308 ft | 231 kts | 248° |
| 2026-05-05 09:23 | 52.14976 | 13.02637 | 6970 ft | 230 kts | 248° |
| 2026-05-05 09:23 | 52.14387 | 13.00217 | 6631 ft | 229 kts | 248° |
| 2026-05-05 09:24 | 52.13817 | 12.97801 | 6354 ft | 226 kts | 253° |
| 2026-05-05 09:24 | 52.13697 | 12.95317 | 6227 ft | 218 kts | 277° |
| 2026-05-05 09:24 | 52.14259 | 12.93068 | 6080 ft | 215 kts | 304° |
| 2026-05-05 09:24 | 52.15381 | 12.91488 | 5954 ft | 215 kts | 330° |
| 2026-05-05 09:25 | 52.16814 | 12.90889 | 5823 ft | 214 kts | 358° |
| 2026-05-05 09:25 | 52.18251 | 12.91394 | 5693 ft | 212 kts | 26° |
| 2026-05-05 09:25 | 52.19383 | 12.92863 | 5561 ft | 208 kts | 53° |
| 2026-05-05 09:25 | 52.20085 | 12.94889 | 5377 ft | 205 kts | 64° |
| 2026-05-05 09:26 | 52.20719 | 12.96949 | 5153 ft | 202 kts | 64° |
| 2026-05-05 09:26 | 52.21350 | 12.98995 | 4870 ft | 201 kts | 64° |
| 2026-05-05 09:26 | 52.21975 | 13.01019 | 4598 ft | 199 kts | 64° |
| 2026-05-05 09:26 | 52.22596 | 13.03027 | 4332 ft | 198 kts | 64° |
| 2026-05-05 09:27 | 52.23215 | 13.05027 | 4092 ft | 196 kts | 64° |
| 2026-05-05 09:27 | 52.23827 | 13.07009 | 4004 ft | 196 kts | 64° |
| 2026-05-05 09:27 | 52.24437 | 13.08993 | 4001 ft | 194 kts | 64° |
| 2026-05-05 09:27 | 52.25036 | 13.10947 | 4011 ft | 192 kts | 64° |
| 2026-05-05 09:28 | 52.25632 | 13.12891 | 4008 ft | 191 kts | 64° |
| 2026-05-05 09:28 | 52.26228 | 13.14830 | 4013 ft | 191 kts | 64° |
| 2026-05-05 09:28 | 52.26825 | 13.16774 | 4014 ft | 191 kts | 64° |
| 2026-05-05 09:28 | 52.27422 | 13.18717 | 4009 ft | 193 kts | 64° |
| 2026-05-05 09:29 | 52.28036 | 13.20633 | 3923 ft | 187 kts | 60° |
| 2026-05-05 09:29 | 52.28650 | 13.22543 | 3448 ft | 193 kts | 65° |
| 2026-05-05 09:29 | 52.29187 | 13.24550 | 3082 ft | 191 kts | 68° |
| 2026-05-05 09:29 | 52.29681 | 13.26547 | 2798 ft | 187 kts | 69° |
| 2026-05-05 09:30 | 52.30151 | 13.28491 | 2550 ft | 178 kts | 68° |
| 2026-05-05 09:30 | 52.30587 | 13.30303 | 2327 ft | 165 kts | 69° |
| 2026-05-05 09:30 | 52.30996 | 13.32007 | 2087 ft | 159 kts | 69° |
| 2026-05-05 09:30 | 52.31395 | 13.33671 | 1877 ft | 156 kts | 69° |
| 2026-05-05 09:31 | 52.31789 | 13.35316 | 1682 ft | 155 kts | 69° |
| 2026-05-05 09:31 | 52.32181 | 13.36952 | 1468 ft | 154 kts | 69° |
| 2026-05-05 09:31 | 52.32572 | 13.38590 | 1259 ft | 157 kts | 70° |
| 2026-05-05 09:31 | 52.32958 | 13.40244 | 998 ft | 153 kts | 69° |
| 2026-05-05 09:32 | 52.33343 | 13.41812 | 777 ft | 144 kts | 67° |
| 2026-05-05 09:32 | 52.33717 | 13.43276 | 571 ft | 136 kts | 69° |
| 2026-05-05 09:32 | 52.34043 | 13.44710 | 390 ft | 133 kts | 70° |
| 2026-05-05 09:32 | 52.34376 | 13.46095 | 289 ft | 136 kts | 69° |
| 2026-05-05 09:33 | 52.34723 | 13.47569 | 182 ft | 136 kts | 69° |
| 2026-05-05 09:33 | 52.35039 | 13.48926 | 154 ft | 110 kts | 69° |
| 2026-05-05 09:33 | 52.35256 | 13.49842 | 154 ft | 67 kts | 69° |
| 2026-05-05 09:33 | 52.35396 | 13.50408 | 155 ft | 23 kts | 58° |
| 2026-05-05 09:34 | 52.35487 | 13.50566 | 155 ft | 26 kts | 42° |
| 2026-05-05 09:34 | 52.35638 | 13.50763 | 155 ft | 29 kts | 38° |
| 2026-05-05 09:34 | 52.35821 | 13.50798 | 155 ft | 29 kts | 338° |
| 2026-05-05 09:34 | 52.36005 | 13.50677 | 155 ft | 22 kts | 339° |
| 2026-05-05 09:35 | 52.36075 | 13.50633 | 155 ft | 5 kts | 339° |
| 2026-05-05 09:35 | 52.36120 | 13.50679 | 155 ft | 3 kts | 60° |
| 2026-05-05 09:35 | 52.36128 | 13.50710 | 155 ft | 3 kts | 72° |
| 2026-05-05 09:36 | 52.36133 | 13.50734 | 155 ft | 2 kts | 70° |
| 2026-05-05 09:36 | 52.36137 | 13.50750 | 155 ft | 0 kts | 68° |